Time;durP1;ratioP1;P1;durP2;ratioP2;P2;SDS_P1;SDS_P2;PMS_P1;PMS_P2;Temp;Humidity;BMP_temperature;BMP_pressure;BME280_temperature;BME280_humidity;BME280_pressure;Samples;Min_cycle;Max_cycle;Signal;HPM_P1;HPM_P2
2023/05/13 00:00:01;;;;;;;3.80;2.17;;;;;;;13.06;45.75;99354.72;4922904;29;20066;-79
2023/05/13 00:02:27;;;;;;;5.80;2.20;;;;;;;13.03;45.68;99356.66;4955489;28;20067;-79
2023/05/13 00:04:52;;;;;;;3.63;1.90;;;;;;;12.96;46.02;99349.38;4955348;28;20042;-80
2023/05/13 00:07:18;;;;;;;5.95;1.90;;;;;;;13.00;45.92;99356.88;4922224;29;20054;-80
2023/05/13 00:09:43;;;;;;;3.83;2.00;;;;;;;12.94;45.96;99348.66;4955201;28;20185;-79
2023/05/13 00:12:09;;;;;;;4.72;1.77;;;;;;;12.93;46.19;99353.03;4922089;29;20470;-80
2023/05/13 00:14:34;;;;;;;4.53;1.60;;;;;;;12.93;46.29;99363.53;4922297;29;20043;-80
2023/05/13 00:17:03;;;;;;;4.03;1.90;;;;;;;12.91;45.96;99352.34;4922431;29;20050;-80
2023/05/13 00:19:28;;;;;;;6.90;1.83;;;;;;;12.87;46.34;99355.31;4923098;29;20042;-80
2023/05/13 00:21:53;;;;;;;5.28;2.00;;;;;;;12.87;46.23;99353.50;4922353;29;20051;-80
2023/05/13 00:24:19;;;;;;;3.53;1.58;;;;;;;12.83;46.69;99352.09;4934519;29;20078;-80
2023/05/13 00:26:44;;;;;;;2.92;1.65;;;;;;;12.83;46.35;99352.91;4934801;29;20063;-80
2023/05/13 00:29:10;;;;;;;2.17;1.45;;;;;;;12.83;46.55;99354.72;4934587;29;20079;-80
2023/05/13 00:31:36;;;;;;;2.58;1.60;;;;;;;12.81;46.64;99357.44;4918763;29;20455;-80
2023/05/13 00:34:03;;;;;;;3.55;1.58;;;;;;;12.79;46.86;99359.34;4934787;29;20040;-80
2023/05/13 00:36:28;;;;;;;3.20;1.90;;;;;;;12.74;46.98;99348.38;4919071;29;20032;-80
2023/05/13 00:38:54;;;;;;;4.07;1.65;;;;;;;12.72;47.02;99345.03;4918875;29;20047;-80
2023/05/13 00:41:20;;;;;;;2.65;1.40;;;;;;;12.73;47.01;99353.72;4934755;29;20526;-79
2023/05/13 00:43:46;;;;;;;2.95;1.60;;;;;;;12.69;47.14;99355.75;4917825;29;20415;-80
2023/05/13 00:46:11;;;;;;;3.50;1.70;;;;;;;12.61;47.00;99358.94;4934197;29;20081;-80
2023/05/13 00:48:37;;;;;;;4.80;1.75;;;;;;;12.67;46.95;99362.91;4918356;29;20054;-80
2023/05/13 00:51:03;;;;;;;3.40;1.77;;;;;;;12.63;47.09;99357.06;4902241;29;20044;-80
2023/05/13 00:53:30;;;;;;;4.97;1.77;;;;;;;12.64;47.22;99361.34;4935473;29;20051;-80
2023/05/13 00:55:56;;;;;;;3.72;1.55;;;;;;;12.62;47.32;99357.19;4934407;29;20071;-80
2023/05/13 00:58:21;;;;;;;4.90;1.45;;;;;;;12.60;47.40;99362.53;4934039;29;20503;-80
2023/05/13 01:01:17;;;;;;;3.35;1.75;;;;;;;12.60;47.36;99366.91;4919005;29;20095;-80
2023/05/13 01:03:57;;;;;;;6.30;1.60;;;;;;;12.57;47.37;99364.53;4898425;29;20047;-80
2023/05/13 01:06:31;;;;;;;2.58;1.55;;;;;;;12.52;47.32;99358.78;4934189;29;20042;-79
2023/05/13 01:08:59;;;;;;;2.92;1.50;;;;;;;12.52;47.81;99357.00;4903745;29;20074;-80
2023/05/13 01:11:30;;;;;;;3.22;1.60;;;;;;;12.48;47.76;99355.59;4935053;29;20122;-80
2023/05/13 01:14:05;;;;;;;3.75;1.80;;;;;;;12.46;47.90;99354.84;4918916;29;20036;-80
2023/05/13 01:16:41;;;;;;;5.20;1.85;;;;;;;12.46;47.76;99360.94;4902836;29;20040;-80
2023/05/13 01:19:25;;;;;;;4.80;1.63;;;;;;;12.45;47.85;99367.09;4919096;29;20044;-80
2023/05/13 01:21:51;;;;;;;3.88;1.80;;;;;;;12.44;48.06;99375.06;4919734;29;20486;-79
2023/05/13 01:24:17;;;;;;;3.03;1.60;;;;;;;12.43;48.06;99376.00;4933641;29;20511;-80
2023/05/13 01:26:42;;;;;;;3.45;1.50;;;;;;;12.41;48.06;99380.53;4934896;29;20102;-80
2023/05/13 01:29:08;;;;;;;4.47;1.60;;;;;;;12.40;47.96;99386.75;4933900;29;20051;-80
2023/05/13 01:31:33;;;;;;;4.28;1.80;;;;;;;12.33;48.19;99385.50;4917518;29;20098;-80
2023/05/13 01:33:59;;;;;;;3.05;1.50;;;;;;;12.36;48.26;99399.19;4901901;29;20411;-80
2023/05/13 01:36:24;;;;;;;3.67;1.92;;;;;;;12.36;48.38;99395.75;4918038;29;20043;-79
2023/05/13 01:38:50;;;;;;;3.15;1.60;;;;;;;12.25;48.19;99378.22;4933786;29;20040;-79
2023/05/13 01:41:15;;;;;;;2.88;1.48;;;;;;;12.33;48.33;99386.34;4933919;29;20028;-79
2023/05/13 01:43:41;;;;;;;3.70;1.60;;;;;;;12.31;48.40;99396.09;4917383;29;20040;-79
2023/05/13 01:46:12;;;;;;;2.78;1.63;;;;;;;12.29;48.41;99398.00;4934889;29;20042;-80
2023/05/13 01:48:38;;;;;;;2.72;1.40;;;;;;;12.25;48.60;99388.69;4918372;29;20507;-81
2023/05/13 01:51:03;;;;;;;4.07;1.90;;;;;;;12.25;48.67;99394.75;4917869;29;20044;-81
2023/05/13 01:53:29;;;;;;;5.38;1.77;;;;;;;12.21;48.49;99393.31;4933479;29;20495;-79
2023/05/13 01:55:54;;;;;;;1.83;1.30;;;;;;;12.24;48.80;99402.69;4934702;29;20039;-80
2023/05/13 01:58:20;;;;;;;2.60;1.50;;;;;;;12.22;48.70;99401.97;4917787;29;20119;-80
2023/05/13 02:00:45;;;;;;;4.07;1.70;;;;;;;12.20;48.63;99399.47;4933544;29;20044;-80
2023/05/13 02:03:11;;;;;;;3.58;1.48;;;;;;;12.13;48.97;99396.47;4935217;29;20153;-80
2023/05/13 02:05:36;;;;;;;3.88;1.70;;;;;;;12.17;49.14;99401.50;4921872;29;20048;-84
2023/05/13 02:08:02;;;;;;;4.72;1.60;;;;;;;12.13;49.11;99393.03;4937078;29;20061;-80
2023/05/13 02:10:28;;;;;;;2.67;1.48;;;;;;;12.13;49.16;99395.66;4937517;29;20495;-82
2023/05/13 02:12:54;;;;;;;1.75;1.23;;;;;;;12.13;49.11;99396.47;4937112;29;20126;-82
2023/05/13 02:15:19;;;;;;;2.88;1.58;;;;;;;12.12;49.10;99402.66;4937509;29;20110;-82
2023/05/13 02:17:45;;;;;;;4.28;2.00;;;;;;;12.04;49.34;99394.53;4921272;29;20380;-82
2023/05/13 02:20:11;;;;;;;3.42;1.65;;;;;;;12.04;49.41;99397.13;4921381;29;20455;-82
2023/05/13 02:22:37;;;;;;;3.90;1.80;;;;;;;12.08;49.33;99397.75;4905027;29;20052;-82
2023/05/13 02:25:03;;;;;;;4.03;1.42;;;;;;;12.06;49.30;99400.47;4921004;29;20403;-82
2023/05/13 02:27:28;;;;;;;2.70;1.60;;;;;;;12.06;49.20;99412.72;4936890;29;20123;-82
2023/05/13 02:29:54;;;;;;;2.92;1.42;;;;;;;12.00;49.21;99400.94;4920542;29;20048;-82
2023/05/13 02:32:19;;;;;;;2.45;1.55;;;;;;;11.97;49.35;99408.16;4936986;29;20110;-81
2023/05/13 02:34:45;;;;;;;3.20;1.48;;;;;;;11.98;49.69;99405.41;4921041;29;20052;-82
2023/05/13 02:37:10;;;;;;;3.78;1.67;;;;;;;11.98;49.61;99408.03;4936733;29;20032;-82
2023/05/13 02:39:36;;;;;;;3.80;1.35;;;;;;;11.94;49.95;99404.00;4936641;29;20044;-82
2023/05/13 02:42:01;;;;;;;2.95;1.88;;;;;;;11.92;49.79;99398.88;4920697;29;20036;-81
2023/05/13 02:44:27;;;;;;;2.83;1.50;;;;;;;11.96;50.09;99393.41;4920172;29;20492;-82
2023/05/13 02:46:52;;;;;;;4.03;1.70;;;;;;;11.94;50.04;99402.19;4920591;29;20042;-82
2023/05/13 02:49:18;;;;;;;2.28;1.40;;;;;;;11.94;49.81;99401.38;4937845;29;20040;-82
2023/05/13 02:51:43;;;;;;;3.20;1.95;;;;;;;11.92;49.98;99400.63;4920415;29;20035;-82
2023/05/13 02:54:09;;;;;;;4.60;2.30;;;;;;;11.91;49.80;99398.94;4937536;29;20124;-82
2023/05/13 02:56:35;;;;;;;4.68;1.65;;;;;;;11.88;49.90;99393.94;4936359;29;20046;-82
2023/05/13 02:59:00;;;;;;;2.85;1.60;;;;;;;11.88;50.07;99392.13;4904684;29;20039;-83
2023/05/13 03:01:26;;;;;;;2.65;1.33;;;;;;;11.88;50.04;99389.53;4936605;29;20067;-82
2023/05/13 03:03:51;;;;;;;3.90;1.50;;;;;;;11.94;50.08;99391.72;4936436;29;20423;-82
2023/05/13 03:06:17;;;;;;;3.28;1.67;;;;;;;11.97;49.81;99395.06;4937302;29;20487;-82
2023/05/13 03:08:42;;;;;;;3.75;1.60;;;;;;;12.02;49.68;99399.03;4904502;29;20047;-82
2023/05/13 03:11:08;;;;;;;4.22;1.38;;;;;;;12.11;49.37;99393.16;4919663;29;20036;-82
2023/05/13 03:13:33;;;;;;;3.08;1.80;;;;;;;12.26;48.85;99395.59;4903986;29;20039;-82
2023/05/13 03:15:58;;;;;;;4.63;1.90;;;;;;;12.36;48.91;99395.75;4919707;29;20032;-82
2023/05/13 03:18:24;;;;;;;3.60;1.60;;;;;;;12.38;48.80;99393.84;4920281;29;20063;-82
2023/05/13 03:20:49;;;;;;;2.53;1.85;;;;;;;12.37;48.76;99403.50;4936227;29;20040;-83
2023/05/13 03:23:15;;;;;;;2.92;1.73;;;;;;;12.33;48.38;99398.59;4904199;29;20063;-83
2023/05/13 03:25:40;;;;;;;3.30;1.67;;;;;;;12.56;48.28;99412.63;4904185;29;20491;-83
2023/05/13 03:28:07;;;;;;;2.83;1.67;;;;;;;12.93;47.57;99434.28;4919716;29;20456;-84
2023/05/13 03:30:33;;;;;;;3.33;1.65;;;;;;;13.15;46.68;99430.06;4904130;29;20078;-82
2023/05/13 03:32:59;;;;;;;4.63;2.13;;;;;;;13.28;46.19;99433.41;4919838;29;20044;-82
2023/05/13 03:35:24;;;;;;;3.85;1.90;;;;;;;13.35;46.29;99434.63;4920015;29;20039;-82
2023/05/13 03:37:50;;;;;;;5.68;1.80;;;;;;;13.57;45.58;99440.88;4920334;29;20050;-83
2023/05/13 03:40:15;;;;;;;2.70;1.70;;;;;;;13.60;45.46;99439.78;4919691;29;20074;-82
2023/05/13 03:42:41;;;;;;;4.30;1.60;;;;;;;14.23;44.27;99451.41;4935225;29;20043;-82
2023/05/13 03:45:07;;;;;;;4.13;1.60;;;;;;;14.85;42.78;99454.34;4919632;29;20044;-82
2023/05/13 03:47:34;;;;;;;3.55;1.63;;;;;;;15.38;41.88;99464.75;4903596;29;20494;-82
2023/05/13 03:49:59;;;;;;;2.22;1.40;;;;;;;16.11;40.34;99466.47;4919392;29;20044;-82
2023/05/13 03:52:25;;;;;;;2.53;1.50;;;;;;;16.80;38.89;99460.31;4919583;29;20036;-84
2023/05/13 03:54:50;;;;;;;2.97;1.33;;;;;;;17.47;37.63;99462.19;4902569;29;20523;-83
2023/05/13 03:57:16;;;;;;;3.63;1.48;;;;;;;18.19;36.27;99458.00;4918556;29;20051;-83
2023/05/13 03:59:41;;;;;;;2.47;1.45;;;;;;;18.90;34.85;99456.38;4903305;29;20036;-83
2023/05/13 04:02:07;;;;;;;3.15;1.58;;;;;;;19.59;33.58;99461.78;4903266;29;20075;-83
2023/05/13 04:04:32;;;;;;;5.32;1.60;;;;;;;20.20;32.38;99454.63;4934045;29;20040;-84
2023/05/13 04:06:58;;;;;;;2.63;1.27;;;;;;;20.90;31.39;99473.81;4919135;29;20071;-84
2023/05/13 04:09:24;;;;;;;3.10;1.40;;;;;;;21.55;30.49;99472.94;4919022;29;20044;-84
2023/05/13 04:11:50;;;;;;;3.17;1.40;;;;;;;22.16;29.50;99456.44;4934923;29;20039;-84
2023/05/13 04:14:15;;;;;;;2.20;1.23;;;;;;;22.72;28.55;99464.22;4934329;29;20039;-82
2023/05/13 04:16:41;;;;;;;6.03;1.40;;;;;;;23.34;27.73;99471.22;4902966;29;20128;-82
2023/05/13 04:19:06;;;;;;;4.45;1.40;;;;;;;23.90;26.87;99462.78;4935779;29;20122;-82
2023/05/13 04:21:32;;;;;;;2.50;1.48;;;;;;;24.49;26.11;99463.66;4918716;29;20044;-82
2023/05/13 04:23:57;;;;;;;3.92;1.58;;;;;;;25.04;24.95;99461.31;4934459;29;20055;-83
2023/05/13 04:26:24;;;;;;;5.03;1.42;;;;;;;25.56;24.50;99459.22;4933760;29;20042;-84
2023/05/13 04:28:49;;;;;;;2.15;1.20;;;;;;;26.15;23.46;99461.34;4917908;29;20035;-83
2023/05/13 04:31:16;;;;;;;4.95;1.45;;;;;;;26.68;22.66;99457.19;4918629;29;20039;-83
2023/05/13 04:33:41;;;;;;;2.22;1.40;;;;;;;27.20;22.14;99458.22;4934179;29;20036;-83
2023/05/13 04:36:08;;;;;;;4.75;1.33;;;;;;;27.69;21.65;99456.09;4917942;29;20043;-82
2023/05/13 04:38:33;;;;;;;4.80;1.23;;;;;;;28.17;21.17;99468.31;4934094;29;20035;-82
2023/05/13 04:40:59;;;;;;;4.45;1.23;;;;;;;28.62;20.76;99457.53;4934623;29;20051;-82
2023/05/13 04:43:24;;;;;;;3.00;1.25;;;;;;;29.16;20.10;99468.66;4932829;29;20039;-82
2023/05/13 04:45:50;;;;;;;4.72;1.00;;;;;;;29.64;19.11;99463.69;4934137;29;20036;-82
2023/05/13 04:48:15;;;;;;;6.22;1.30;;;;;;;30.09;19.10;99474.97;4935308;29;20411;-81
2023/05/13 04:50:45;;;;;;;5.22;1.30;;;;;;;30.59;18.03;99468.47;4934359;29;20423;-81
2023/05/13 04:53:11;;;;;;;4.90;1.40;;;;;;;31.01;17.66;99467.63;4902497;29;20094;-83
2023/05/13 04:55:36;;;;;;;5.45;1.45;;;;;;;31.41;16.82;99471.50;4918296;29;20488;-83
2023/05/13 04:58:02;;;;;;;6.90;1.50;;;;;;;31.84;16.80;99481.09;4917912;29;20439;-84
2023/05/13 05:00:28;;;;;;;4.18;1.30;;;;;;;32.20;16.22;99474.53;4917614;29;20072;-84
2023/05/13 05:02:53;;;;;;;5.40;1.55;;;;;;;32.57;16.05;99470.59;4919089;29;20035;-84
2023/05/13 05:05:20;;;;;;;10.50;1.40;;;;;;;32.94;15.54;99472.84;4919586;29;20051;-84
2023/05/13 05:08:08;;;;;;;;;;;;;;;33.26;15.65;99473.09;4935989;29;20087;-84
2023/05/13 05:10:56;;;;;;;4.45;1.48;;;;;;;33.60;15.52;99473.00;4942501;29;20282;-85
2023/05/13 05:13:23;;;;;;;7.50;1.60;;;;;;;33.99;15.42;99474.88;4937720;29;20115;-86
2023/05/13 05:15:50;;;;;;;5.45;1.27;;;;;;;34.29;15.04;99473.59;4937409;29;20036;-83
2023/05/13 05:18:16;;;;;;;4.27;1.40;;;;;;;34.57;14.93;99478.75;4936236;29;20051;-85
2023/05/13 05:20:42;;;;;;;3.72;1.48;;;;;;;34.93;14.78;99484.50;4936723;29;20055;-86
2023/05/13 05:23:09;;;;;;;5.22;0.85;;;;;;;35.22;18.85;99486.03;4938269;29;20063;-80
2023/05/13 05:25:35;;;;;;;3.10;0.75;;;;;;;35.50;19.35;99503.88;4921303;29;20036;-77
2023/05/13 05:28:03;;;;;;;4.88;1.20;;;;;;;35.76;19.31;99509.47;4926721;29;20167;-78
2023/05/13 05:30:31;;;;;;;9.38;1.30;;;;;;;35.91;18.57;99501.38;4938877;29;20042;-79
2023/05/13 05:32:58;;;;;;;10.48;1.35;;;;;;;36.12;18.84;99509.59;4905182;29;20051;-80
2023/05/13 05:35:23;;;;;;;16.33;1.70;;;;;;;36.25;18.59;99513.72;4921900;29;20035;-80
2023/05/13 05:37:50;;;;;;;10.30;1.60;;;;;;;36.42;18.16;99513.50;4927421;29;20542;-78
2023/05/13 05:40:15;;;;;;;11.95;1.67;;;;;;;36.61;17.00;99511.91;4941849;29;20038;-84
2023/05/13 05:42:42;;;;;;;10.77;1.58;;;;;;;36.81;15.67;99510.31;4925470;29;20098;-84
2023/05/13 05:45:08;;;;;;;5.97;1.95;;;;;;;36.92;15.39;99515.47;4910132;29;20149;-84
2023/05/13 05:47:35;;;;;;;5.97;1.50;;;;;;;37.04;14.73;99526.09;4927165;29;20058;-85
2023/05/13 05:50:04;;;;;;;4.13;1.33;;;;;;;37.03;14.78;99526.34;4926962;29;20106;-85
2023/05/13 05:52:50;;;;;;;6.93;1.50;;;;;;;36.99;14.46;99533.41;4945303;29;20035;-80
2023/05/13 05:55:15;;;;;;;6.25;1.98;;;;;;;37.08;14.01;99524.44;4925233;29;20450;-83
2023/05/13 05:57:40;;;;;;;7.78;1.73;;;;;;;36.93;14.11;99525.28;4909376;29;20053;-81
2023/05/13 06:00:07;;;;;;;10.30;2.10;;;;;;;36.84;14.14;99520.66;4940721;29;20039;-79
2023/05/13 06:02:32;;;;;;;5.40;1.65;;;;;;;36.67;14.15;99518.16;4940605;29;20067;-81
2023/05/13 06:04:57;;;;;;;5.90;2.05;;;;;;;36.06;14.58;99522.38;4925341;29;20051;-82
2023/05/13 06:07:23;;;;;;;4.13;2.00;;;;;;;35.40;14.84;99518.22;4928113;29;20031;-82
2023/05/13 06:09:49;;;;;;;6.60;1.95;;;;;;;35.85;14.58;99508.72;4909374;29;20561;-78
2023/05/13 06:12:18;;;;;;;6.13;1.70;;;;;;;36.13;14.71;99516.66;4924885;29;20031;-83
2023/05/13 06:14:44;;;;;;;11.65;2.53;;;;;;;36.42;14.01;99514.34;4933320;29;20475;-79
2023/05/13 06:17:09;;;;;;;12.73;1.95;;;;;;;36.32;14.17;99511.59;4939804;29;20067;-79
2023/05/13 06:19:35;;;;;;;4.05;1.80;;;;;;;35.46;14.96;99514.44;4922423;29;20040;-79
2023/05/13 06:22:03;;;;;;;9.27;1.95;;;;;;;34.96;15.08;99499.44;4939290;29;20039;-80
2023/05/13 06:24:28;;;;;;;4.63;1.88;;;;;;;34.29;15.84;99498.81;4957546;29;20059;-80
2023/05/13 06:26:55;;;;;;;6.40;1.90;;;;;;;33.87;16.02;99499.38;4908591;29;20399;-78
2023/05/13 06:29:21;;;;;;;5.75;1.98;;;;;;;33.87;15.97;99504.78;4908821;29;20035;-80
2023/05/13 06:31:46;;;;;;;7.95;2.03;;;;;;;33.57;16.19;99505.19;4908559;29;20028;-78
2023/05/13 06:34:15;;;;;;;6.93;1.90;;;;;;;33.50;16.13;99498.06;4924130;29;20510;-78
2023/05/13 06:36:41;;;;;;;3.78;1.70;;;;;;;33.33;16.33;99503.50;4940090;29;20102;-78
2023/05/13 06:39:07;;;;;;;5.38;2.13;;;;;;;32.79;16.63;99503.97;4957560;29;20102;-78
2023/05/13 06:41:33;;;;;;;7.15;1.90;;;;;;;32.26;17.48;99503.28;4924280;29;20443;-78
2023/05/13 06:43:58;;;;;;;5.32;1.85;;;;;;;32.17;17.09;99502.03;4940158;29;20555;-82
2023/05/13 06:46:24;;;;;;;4.55;1.92;;;;;;;31.90;17.27;99507.13;4924157;29;20498;-79
2023/05/13 06:48:51;;;;;;;7.68;1.52;;;;;;;31.67;17.34;99507.97;4923463;29;20047;-78
2023/05/13 06:51:17;;;;;;;6.28;2.05;;;;;;;31.84;16.88;99516.19;4924741;29;20031;-78
2023/05/13 06:53:42;;;;;;;7.95;1.90;;;;;;;31.52;17.31;99513.84;4924602;29;20047;-79
2023/05/13 06:56:08;;;;;;;6.53;1.75;;;;;;;31.50;17.44;99519.47;4957081;29;20043;-79
2023/05/13 06:58:33;;;;;;;6.28;1.83;;;;;;;30.99;17.73;99519.06;4923237;29;20043;-82
2023/05/13 07:00:59;;;;;;;4.13;1.50;;;;;;;30.97;18.15;99528.47;4923936;29;20498;-79
2023/05/13 07:03:24;;;;;;;5.80;1.88;;;;;;;30.73;17.91;99525.69;4908241;29;20419;-77
2023/05/13 07:05:50;;;;;;;5.82;1.90;;;;;;;30.79;18.23;99529.31;4908033;29;20047;-79
2023/05/13 07:08:16;;;;;;;6.22;2.08;;;;;;;31.50;17.56;99526.72;4939357;29;20043;-77
2023/05/13 07:10:42;;;;;;;7.60;1.60;;;;;;;31.33;18.12;99515.84;4924093;29;20042;-79
2023/05/13 07:13:08;;;;;;;6.55;1.67;;;;;;;31.52;17.99;99533.53;4924036;29;20039;-79
2023/05/13 07:15:33;;;;;;;5.13;1.67;;;;;;;31.64;17.64;99540.84;4923551;29;20118;-77
2023/05/13 07:17:59;;;;;;;5.53;2.70;;;;;;;31.80;17.55;99534.75;4940208;29;20483;-79
2023/05/13 07:20:25;;;;;;;6.22;2.30;;;;;;;32.23;17.07;99533.47;4957506;29;20074;-78
2023/05/13 07:22:50;;;;;;;4.68;2.17;;;;;;;32.70;16.97;99528.94;4907980;29;20062;-78
2023/05/13 07:25:19;;;;;;;4.38;1.92;;;;;;;32.92;16.47;99519.06;4907848;29;20491;-78
2023/05/13 07:27:46;;;;;;;4.15;2.17;;;;;;;33.14;15.90;99521.84;4908072;29;20491;-78
2023/05/13 07:30:12;;;;;;;3.90;2.10;;;;;;;33.51;15.24;99534.03;4939304;29;20109;-79
2023/05/13 07:32:38;;;;;;;5.22;1.73;;;;;;;33.74;15.09;99526.81;4923131;29;20058;-78
2023/05/13 07:35:04;;;;;;;6.28;1.60;;;;;;;33.95;15.08;99542.25;4907479;29;20074;-79
2023/05/13 07:37:30;;;;;;;4.80;1.73;;;;;;;34.06;15.06;99538.63;4938932;29;20067;-79
2023/05/13 07:39:55;;;;;;;4.22;1.75;;;;;;;34.15;14.68;99543.59;4907521;29;20049;-78
2023/05/13 07:42:20;;;;;;;4.97;1.48;;;;;;;34.18;14.59;99535.75;4924443;29;20546;-79
2023/05/13 07:44:46;;;;;;;7.38;2.20;;;;;;;34.30;14.95;99527.53;4908625;29;20047;-77
2023/05/13 07:47:14;;;;;;;5.80;2.20;;;;;;;34.40;14.50;99529.53;4957372;29;20043;-83
2023/05/13 07:49:39;;;;;;;4.97;2.35;;;;;;;34.47;14.57;99526.63;4923369;29;20126;-82
2023/05/13 07:52:06;;;;;;;5.88;2.63;;;;;;;34.50;14.35;99526.91;4924186;29;20070;-77
2023/05/13 07:54:32;;;;;;;4.93;2.50;;;;;;;34.51;14.50;99516.91;4923003;29;20055;-78
2023/05/13 07:56:57;;;;;;;5.60;2.67;;;;;;;34.52;14.56;99519.38;4907089;29;20286;-78
2023/05/13 07:59:23;;;;;;;5.03;2.40;;;;;;;34.49;14.64;99521.75;4922674;29;20035;-79
2023/05/13 08:01:48;;;;;;;4.70;2.10;;;;;;;34.38;13.73;99516.25;4906034;29;20046;-79
2023/05/13 08:04:14;;;;;;;7.70;2.28;;;;;;;34.23;13.92;99524.19;4923113;29;20043;-77
2023/05/13 08:06:39;;;;;;;4.45;2.00;;;;;;;34.14;14.17;99514.84;4922687;29;20043;-77
2023/05/13 08:09:05;;;;;;;4.45;3.00;;;;;;;33.98;14.09;99522.78;4938340;29;20450;-77
2023/05/13 08:11:30;;;;;;;4.57;2.60;;;;;;;33.90;13.86;99512.41;4938520;29;20039;-78
2023/05/13 08:13:56;;;;;;;5.40;2.47;;;;;;;33.82;13.51;99504.72;4907075;29;20043;-78
2023/05/13 08:16:22;;;;;;;3.75;2.10;;;;;;;33.74;13.86;99514.09;4938309;29;20050;-78
2023/05/13 08:18:47;;;;;;;3.00;1.83;;;;;;;33.61;13.47;99506.31;4937330;29;20039;-78
2023/05/13 08:21:12;;;;;;;2.97;1.60;;;;;;;33.50;13.56;99505.38;4938273;29;20039;-78
2023/05/13 08:23:38;;;;;;;2.60;1.50;;;;;;;33.34;13.35;99507.03;4906917;29;20054;-79
2023/05/13 08:26:03;;;;;;;4.85;1.65;;;;;;;33.22;14.01;99498.19;4937875;29;20525;-80
2023/05/13 08:28:29;;;;;;;2.58;1.52;;;;;;;33.17;14.01;99499.75;4938196;29;20082;-77
2023/05/13 08:31:01;;;;;;;3.00;1.70;;;;;;;33.11;14.08;99492.56;4937794;29;20080;-78
2023/05/13 08:33:28;;;;;;;8.02;2.00;;;;;;;32.91;14.17;99489.56;4939274;29;20440;-79
2023/05/13 08:35:53;;;;;;;4.68;1.95;;;;;;;32.74;14.24;99494.97;4922386;29;20043;-78
2023/05/13 08:38:19;;;;;;;5.90;1.77;;;;;;;32.61;14.36;99479.88;4955079;29;20493;-78
2023/05/13 08:40:44;;;;;;;4.95;2.10;;;;;;;32.47;14.54;99480.16;4922270;29;20054;-80
2023/05/13 08:43:10;;;;;;;3.60;1.50;;;;;;;32.41;14.68;99483.81;4922043;29;20035;-78
2023/05/13 08:45:35;;;;;;;4.88;1.33;;;;;;;32.35;14.61;99482.09;4906050;29;20050;-78
2023/05/13 08:48:01;;;;;;;5.65;1.60;;;;;;;32.31;14.76;99485.50;4906509;29;20039;-80
2023/05/13 08:50:27;;;;;;;8.93;1.48;;;;;;;32.24;14.94;99499.97;4922020;29;20126;-77
2023/05/13 08:52:53;;;;;;;4.38;1.50;;;;;;;32.26;14.92;99494.34;4922347;29;20503;-78
2023/05/13 08:55:19;;;;;;;4.60;1.20;;;;;;;32.15;14.79;99485.25;4905522;29;20039;-79
2023/05/13 08:57:44;;;;;;;4.22;1.38;;;;;;;32.04;14.89;99486.06;4905854;29;20035;-79
2023/05/13 09:00:10;;;;;;;3.22;1.30;;;;;;;32.00;14.79;99474.94;4954607;28;20066;-79
2023/05/13 09:02:36;;;;;;;3.25;1.20;;;;;;;32.04;14.68;99483.34;4921474;29;20039;-79
2023/05/13 09:05:05;;;;;;;3.97;1.40;;;;;;;32.00;14.41;99488.41;4921572;29;20057;-78
2023/05/13 09:07:31;;;;;;;4.78;1.23;;;;;;;31.73;14.24;99477.34;4937552;29;20035;-78
2023/05/13 09:09:56;;;;;;;2.22;1.08;;;;;;;31.74;14.40;99473.59;4937114;29;20095;-79
2023/05/13 09:12:40;;;;;;;2.72;1.00;;;;;;;31.36;15.13;99472.22;4920910;29;20489;-78
2023/05/13 09:15:08;;;;;;;2.65;1.10;;;;;;;31.22;14.86;99474.34;4937659;29;20038;-78
2023/05/13 09:17:37;;;;;;;;;;;;;;;31.17;14.85;99466.94;4922303;29;20119;-78
2023/05/13 09:20:09;;;;;;;4.70;1.13;;;;;;;31.07;14.82;99473.97;4937539;29;19948;-79
2023/05/13 09:22:35;;;;;;;1.88;0.98;;;;;;;30.94;14.66;99473.09;4936878;29;20066;-78
2023/05/13 09:25:01;;;;;;;3.47;1.15;;;;;;;30.73;14.88;99477.19;4954640;28;20050;-78
2023/05/13 09:27:39;;;;;;;2.08;0.90;;;;;;;30.57;15.22;99478.66;4905675;29;20039;-79
2023/05/13 09:30:06;;;;;;;3.50;1.10;;;;;;;30.41;15.47;99482.00;4906437;29;20035;-79
2023/05/13 09:32:31;;;;;;;1.85;1.00;;;;;;;30.41;16.10;99482.84;4904883;29;20499;-79
2023/05/13 09:34:57;;;;;;;6.22;1.15;;;;;;;30.31;15.77;99483.38;4921275;29;20042;-77
2023/05/13 09:37:23;;;;;;;3.35;1.00;;;;;;;30.22;16.18;99470.41;4921165;29;20031;-78
2023/05/13 09:39:50;;;;;;;2.83;0.90;;;;;;;29.95;16.32;99478.84;4921328;29;20035;-79
2023/05/13 09:42:16;;;;;;;3.72;1.20;;;;;;;29.75;15.89;99465.63;4920979;29;20032;-79
2023/05/13 09:44:43;;;;;;;3.35;1.15;;;;;;;29.49;16.39;99466.72;4937129;29;20039;-79
2023/05/13 09:47:15;;;;;;;1.55;0.85;;;;;;;29.21;16.78;99460.78;4921221;29;20033;-78
2023/05/13 09:49:42;;;;;;;3.35;1.10;;;;;;;29.24;16.41;99448.78;4921834;29;20050;-77
2023/05/13 09:52:10;;;;;;;2.47;0.90;;;;;;;29.16;16.62;99452.53;4921390;29;20491;-79
2023/05/13 09:54:38;;;;;;;3.90;1.10;;;;;;;29.04;16.52;99446.25;4921342;29;20067;-78
2023/05/13 09:57:04;;;;;;;2.53;1.08;;;;;;;28.87;16.89;99440.59;4905607;29;20035;-79
2023/05/13 09:59:33;;;;;;;3.72;1.20;;;;;;;28.74;17.19;99433.47;4936930;29;20475;-77
2023/05/13 10:02:03;;;;;;;3.15;1.00;;;;;;;28.83;17.06;99444.78;4921311;29;20042;-79
2023/05/13 10:04:29;;;;;;;2.42;0.98;;;;;;;28.57;16.90;99427.78;4921076;29;20105;-78
2023/05/13 10:06:55;;;;;;;1.90;0.93;;;;;;;28.56;16.59;99453.00;4921373;29;20151;-79
2023/05/13 10:09:21;;;;;;;3.78;1.00;;;;;;;28.48;16.76;99437.13;4921715;29;20123;-80
2023/05/13 10:11:47;;;;;;;2.03;0.82;;;;;;;28.40;16.86;99435.56;4905864;29;20135;-79
2023/05/13 10:14:12;;;;;;;2.17;0.93;;;;;;;28.18;16.94;99437.75;4905684;29;20125;-78
2023/05/13 10:16:38;;;;;;;3.38;0.85;;;;;;;28.04;17.13;99428.09;4921412;29;20062;-78
2023/05/13 10:19:04;;;;;;;3.17;1.10;;;;;;;27.94;17.43;99442.81;4905384;29;20065;-79
2023/05/13 10:21:30;;;;;;;2.15;1.10;;;;;;;27.83;17.00;99439.94;4905985;29;20066;-78
2023/05/13 10:23:55;;;;;;;0.90;0.70;;;;;;;27.65;17.11;99435.25;4921113;29;20062;-78
2023/05/13 10:26:21;;;;;;;3.05;0.90;;;;;;;27.49;17.29;99428.50;4924565;29;20418;-79
2023/05/13 10:28:47;;;;;;;3.20;1.05;;;;;;;27.36;17.92;99422.16;4924513;29;20078;-78
2023/05/13 10:31:12;;;;;;;3.15;0.90;;;;;;;27.22;17.76;99431.22;4924415;29;20067;-78
2023/05/13 10:33:39;;;;;;;2.08;0.95;;;;;;;27.07;17.64;99432.28;4924237;29;20090;-79
2023/05/13 10:36:26;;;;;;;5.25;1.00;;;;;;;26.90;17.79;99425.69;4924633;29;20042;-80
2023/05/13 10:39:01;;;;;;;4.38;1.00;;;;;;;26.74;17.82;99429.59;4957383;29;20499;-79
2023/05/13 10:41:55;;;;;;;2.97;0.98;;;;;;;26.66;17.85;99435.13;4957601;28;20086;-80
2023/05/13 10:44:22;;;;;;;1.77;0.85;;;;;;;26.51;18.15;99441.47;4928797;29;20047;-79
2023/05/13 10:46:47;;;;;;;4.53;1.08;;;;;;;26.42;18.19;99436.53;4924496;29;20039;-78
2023/05/13 10:49:14;;;;;;;4.40;1.10;;;;;;;26.35;18.39;99437.34;4907982;29;20047;-78
2023/05/13 10:51:44;;;;;;;1.67;0.83;;;;;;;26.25;18.72;99439.59;4923501;29;20148;-79
2023/05/13 10:54:17;;;;;;;2.60;0.90;;;;;;;26.16;19.18;99443.47;4923791;29;20483;-79
2023/05/13 10:56:43;;;;;;;2.83;1.00;;;;;;;26.01;18.96;99438.25;4924404;29;20051;-78
2023/05/13 10:59:09;;;;;;;1.58;0.88;;;;;;;25.96;18.75;99443.38;4924519;29;20113;-79
2023/05/13 11:01:37;;;;;;;3.75;1.00;;;;;;;25.79;18.96;99443.72;4907832;29;20430;-77
2023/05/13 11:04:04;;;;;;;2.67;0.88;;;;;;;25.70;19.24;99441.41;4907962;29;20094;-78
2023/05/13 11:06:33;;;;;;;4.15;1.05;;;;;;;25.62;19.51;99443.22;4907481;29;20085;-78
2023/05/13 11:08:58;;;;;;;2.03;1.02;;;;;;;25.46;19.68;99433.69;4939207;29;20031;-78
2023/05/13 11:11:26;;;;;;;3.40;1.10;;;;;;;25.38;19.64;99430.31;4923726;29;20054;-78
2023/05/13 11:13:53;;;;;;;2.45;1.02;;;;;;;25.28;20.33;99442.19;4939333;29;20101;-79
2023/05/13 11:16:19;;;;;;;6.40;1.33;;;;;;;25.15;20.26;99427.91;4907517;29;20043;-78
2023/05/13 11:18:44;;;;;;;4.10;1.40;;;;;;;25.06;20.73;99430.72;4956291;29;20118;-79
2023/05/13 11:21:10;;;;;;;2.53;1.35;;;;;;;24.97;21.16;99426.53;4907175;29;20186;-78
2023/05/13 11:23:51;;;;;;;1.55;1.02;;;;;;;24.85;21.16;99420.91;4907732;29;20055;-78
2023/05/13 11:26:17;;;;;;;3.40;1.23;;;;;;;24.70;21.20;99420.13;4939603;29;20089;-78
2023/05/13 11:28:57;;;;;;;2.42;1.10;;;;;;;24.58;21.33;99409.16;4923203;29;20043;-77
2023/05/13 11:31:23;;;;;;;3.95;1.20;;;;;;;24.57;21.42;99415.50;4922796;29;20039;-78